Columbia Station, Ohio
Current Conditions -  °F | °C
As of 2:51 AM on Sunday 26 Oct 2014 (Local Time) from KCLE Reporting Station
Clear Clear  
Wind Chill: 54°   Ceiling: Unl
Heat Index: 54°   Visibility: 10mi
Dew Point: 37°   Wind: 15mph
Humidity: 53%   Direction: 300°WNW
Pressure: 29.84"   Gusts: NA
Location:  41.31°N, 81.95°W
Report Text: KCLE 260651Z 30013KT 10SM CLR 12/03 A2984 RMK AO2 SLP103 T01220028
Loading
Personal Weather Stations






























Interactive Weather Map
Tropical Storm Tracking
New forecast layout! Learn more

10-Day Weather Forecast

Advertisements
Track Severe Weather on mobile